Mesa Poleo, New Mexico
Current Conditions -  °F | °C
As of 5:53 PM on Monday 26 Jan 2015 (Local Time) from KFMN Reporting Station
Clear Clear  
Wind Chill: 47°   Ceiling: Unl
Heat Index: 47°   Visibility: 10mi
Dew Point: 24°   Wind: 3mph
Humidity: 41%   Direction: 50°NE
Pressure: 30.3"   Gusts: NA
Location:  36.3463°N, 107.543°W
Report Text: KFMN 270053Z 05003KT 10SM CLR 08/M04 A3030 RMK AO2 SLP268 T00831044
Loading
Personal Weather Stations






























Interactive Weather Map New forecast layout! Learn more

10-Day Weather Forecast

Advertisements
Track Severe Weather on mobile